sensor_id;sensor_type;location;lat;lon;timestamp;temperature;humidity
23452;DHT22;11898;51.130;6.780;2023-01-09T00:01:44;9.00;99.90
23452;DHT22;11898;51.130;6.780;2023-01-09T00:04:12;9.00;99.90
23452;DHT22;11898;51.130;6.780;2023-01-09T00:06:41;9.00;99.90
23452;DHT22;11898;51.130;6.780;2023-01-09T00:09:10;8.80;99.90
23452;DHT22;11898;51.130;6.780;2023-01-09T00:11:39;8.90;99.90
23452;DHT22;11898;51.130;6.780;2023-01-09T00:14:07;8.80;99.90
23452;DHT22;11898;51.130;6.780;2023-01-09T00:16:37;8.90;99.90
23452;DHT22;11898;51.130;6.780;2023-01-09T00:19:06;8.80;99.90
23452;DHT22;11898;51.130;6.780;2023-01-09T00:21:35;8.70;99.90
23452;DHT22;11898;51.130;6.780;2023-01-09T00:24:04;8.80;99.90
23452;DHT22;11898;51.130;6.780;2023-01-09T00:26:33;8.90;99.90
23452;DHT22;11898;51.130;6.780;2023-01-09T00:29:02;8.60;99.90
23452;DHT22;11898;51.130;6.780;2023-01-09T00:31:30;8.30;99.90
23452;DHT22;11898;51.130;6.780;2023-01-09T00:34:01;8.80;99.90
23452;DHT22;11898;51.130;6.780;2023-01-09T00:36:30;8.70;99.90
23452;DHT22;11898;51.130;6.780;2023-01-09T00:38:59;8.80;99.90
23452;DHT22;11898;51.130;6.780;2023-01-09T00:41:38;8.70;99.90
23452;DHT22;11898;51.130;6.780;2023-01-09T00:44:06;8.70;99.90
23452;DHT22;11898;51.130;6.780;2023-01-09T00:46:37;8.60;99.90
23452;DHT22;11898;51.130;6.780;2023-01-09T00:49:07;8.60;99.90
23452;DHT22;11898;51.130;6.780;2023-01-09T00:51:37;8.60;99.90
23452;DHT22;11898;51.130;6.780;2023-01-09T00:54:06;8.50;99.90
23452;DHT22;11898;51.130;6.780;2023-01-09T00:56:35;8.50;99.90
23452;DHT22;11898;51.130;6.780;2023-01-09T00:59:04;8.50;99.90
23452;DHT22;11898;51.130;6.780;2023-01-09T01:01:33;8.40;99.90
23452;DHT22;11898;51.130;6.780;2023-01-09T01:04:02;8.50;99.90
23452;DHT22;11898;51.130;6.780;2023-01-09T01:06:33;8.40;99.90
23452;DHT22;11898;51.130;6.780;2023-01-09T01:09:19;8.40;99.90
23452;DHT22;11898;51.130;6.780;2023-01-09T01:11:48;8.40;99.90
23452;DHT22;11898;51.130;6.780;2023-01-09T01:14:16;8.40;99.90
23452;DHT22;11898;51.130;6.780;2023-01-09T01:16:45;8.40;99.90
23452;DHT22;11898;51.130;6.780;2023-01-09T01:19:13;8.40;99.90
23452;DHT22;11898;51.130;6.780;2023-01-09T01:21:42;8.30;99.90
23452;DHT22;11898;51.130;6.780;2023-01-09T01:24:11;8.30;99.90
23452;DHT22;11898;51.130;6.780;2023-01-09T01:26:39;8.30;99.90
23452;DHT22;11898;51.130;6.780;2023-01-09T01:29:08;8.30;99.90
23452;DHT22;11898;51.130;6.780;2023-01-09T01:31:36;8.30;99.90
23452;DHT22;11898;51.130;6.780;2023-01-09T01:34:05;8.40;99.90
23452;DHT22;11898;51.130;6.780;2023-01-09T01:36:34;8.40;99.90
23452;DHT22;11898;51.130;6.780;2023-01-09T01:39:02;8.40;99.90
23452;DHT22;11898;51.130;6.780;2023-01-09T01:41:31;8.20;99.90
23452;DHT22;11898;51.130;6.780;2023-01-09T01:44:02;8.40;99.90
23452;DHT22;11898;51.130;6.780;2023-01-09T01:46:32;8.50;99.90
23452;DHT22;11898;51.130;6.780;2023-01-09T01:49:09;8.50;99.90
23452;DHT22;11898;51.130;6.780;2023-01-09T01:54:12;8.70;99.90
23452;DHT22;11898;51.130;6.780;2023-01-09T01:56:48;8.70;99.90
23452;DHT22;11898;51.130;6.780;2023-01-09T01:59:30;8.70;99.90
23452;DHT22;11898;51.130;6.780;2023-01-09T02:01:59;8.70;99.90
23452;DHT22;11898;51.130;6.780;2023-01-09T02:04:30;8.70;99.90
23452;DHT22;11898;51.130;6.780;2023-01-09T02:07:02;8.70;99.90
23452;DHT22;11898;51.130;6.780;2023-01-09T02:09:32;8.80;99.90
23452;DHT22;11898;51.130;6.780;2023-01-09T02:12:01;8.70;99.90
23452;DHT22;11898;51.130;6.780;2023-01-09T02:14:31;8.80;99.90
23452;DHT22;11898;51.130;6.780;2023-01-09T02:17:16;8.80;99.90
23452;DHT22;11898;51.130;6.780;2023-01-09T02:25:43;8.80;99.90
23452;DHT22;11898;51.130;6.780;2023-01-09T02:30:48;8.90;99.90
23452;DHT22;11898;51.130;6.780;2023-01-09T02:36:21;8.80;99.90
23452;DHT22;11898;51.130;6.780;2023-01-09T02:41:53;8.90;99.90
23452;DHT22;11898;51.130;6.780;2023-01-09T02:44:28;8.90;99.90
23452;DHT22;11898;51.130;6.780;2023-01-09T02:47:05;8.80;99.90
23452;DHT22;11898;51.130;6.780;2023-01-09T02:49:36;8.80;99.90
23452;DHT22;11898;51.130;6.780;2023-01-09T03:05:57;9.00;99.90
23452;DHT22;11898;51.130;6.780;2023-01-09T03:08:39;9.00;99.90
23452;DHT22;11898;51.130;6.780;2023-01-09T03:11:05;8.90;99.90
23452;DHT22;11898;51.130;6.780;2023-01-09T03:13:44;9.10;99.90
23452;DHT22;11898;51.130;6.780;2023-01-09T03:16:15;9.00;99.90
23452;DHT22;11898;51.130;6.780;2023-01-09T03:18:45;9.10;99.90
23452;DHT22;11898;51.130;6.780;2023-01-09T03:21:14;9.10;99.90
23452;DHT22;11898;51.130;6.780;2023-01-09T03:23:55;9.00;99.90
23452;DHT22;11898;51.130;6.780;2023-01-09T03:26:21;9.00;99.90
23452;DHT22;11898;51.130;6.780;2023-01-09T03:28:49;9.00;99.90
23452;DHT22;11898;51.130;6.780;2023-01-09T03:33:46;8.80;99.90
23452;DHT22;11898;51.130;6.780;2023-01-09T03:36:18;8.80;99.90
23452;DHT22;11898;51.130;6.780;2023-01-09T03:38:46;8.80;99.90
23452;DHT22;11898;51.130;6.780;2023-01-09T03:41:14;8.70;99.90
23452;DHT22;11898;51.130;6.780;2023-01-09T03:43:43;8.60;99.90
23452;DHT22;11898;51.130;6.780;2023-01-09T03:46:12;8.40;99.90
23452;DHT22;11898;51.130;6.780;2023-01-09T03:48:41;8.40;99.90
23452;DHT22;11898;51.130;6.780;2023-01-09T03:51:09;8.20;99.90
23452;DHT22;11898;51.130;6.780;2023-01-09T03:53:38;8.10;99.90
23452;DHT22;11898;51.130;6.780;2023-01-09T03:56:07;8.10;99.90
23452;DHT22;11898;51.130;6.780;2023-01-09T04:01:05;8.00;99.90
23452;DHT22;11898;51.130;6.780;2023-01-09T04:03:35;7.90;99.90
23452;DHT22;11898;51.130;6.780;2023-01-09T04:06:04;7.80;99.90
23452;DHT22;11898;51.130;6.780;2023-01-09T04:08:33;7.90;99.90
23452;DHT22;11898;51.130;6.780;2023-01-09T04:11:02;7.80;99.90
23452;DHT22;11898;51.130;6.780;2023-01-09T04:13:30;7.80;99.90
23452;DHT22;11898;51.130;6.780;2023-01-09T04:15:59;7.70;99.90
23452;DHT22;11898;51.130;6.780;2023-01-09T04:18:27;7.70;99.90
23452;DHT22;11898;51.130;6.780;2023-01-09T04:20:56;7.60;99.90
23452;DHT22;11898;51.130;6.780;2023-01-09T04:23:25;7.60;99.90
23452;DHT22;11898;51.130;6.780;2023-01-09T04:25:55;7.50;99.90
23452;DHT22;11898;51.130;6.780;2023-01-09T04:28:23;7.40;99.90
23452;DHT22;11898;51.130;6.780;2023-01-09T05:12:57;8.10;99.90
23452;DHT22;11898;51.130;6.780;2023-01-09T05:15:25;8.20;99.90
23452;DHT22;11898;51.130;6.780;2023-01-09T05:17:54;8.30;99.90
23452;DHT22;11898;51.130;6.780;2023-01-09T05:20:23;8.20;99.90
23452;DHT22;11898;51.130;6.780;2023-01-09T05:22:51;8.30;99.90
23452;DHT22;11898;51.130;6.780;2023-01-09T05:25:20;8.30;99.90
23452;DHT22;11898;51.130;6.780;2023-01-09T05:27:48;8.40;99.90
23452;DHT22;11898;51.130;6.780;2023-01-09T05:30:17;8.50;99.90
23452;DHT22;11898;51.130;6.780;2023-01-09T05:32:46;8.60;99.90
23452;DHT22;11898;51.130;6.780;2023-01-09T05:35:15;8.50;99.90
23452;DHT22;11898;51.130;6.780;2023-01-09T05:37:43;8.60;99.90
23452;DHT22;11898;51.130;6.780;2023-01-09T05:40:12;8.60;99.90
23452;DHT22;11898;51.130;6.780;2023-01-09T05:42:42;8.70;99.90
23452;DHT22;11898;51.130;6.780;2023-01-09T05:45:11;8.70;99.90
23452;DHT22;11898;51.130;6.780;2023-01-09T05:47:40;8.60;99.90
23452;DHT22;11898;51.130;6.780;2023-01-09T05:50:09;8.70;99.90
23452;DHT22;11898;51.130;6.780;2023-01-09T05:52:38;8.60;99.90
23452;DHT22;11898;51.130;6.780;2023-01-09T05:55:07;8.60;99.90
23452;DHT22;11898;51.130;6.780;2023-01-09T05:57:36;8.60;99.90
23452;DHT22;11898;51.130;6.780;2023-01-09T06:00:05;8.60;99.90
23452;DHT22;11898;51.130;6.780;2023-01-09T06:02:33;8.70;99.90
23452;DHT22;11898;51.130;6.780;2023-01-09T06:05:02;10.00;99.90
23452;DHT22;11898;51.130;6.780;2023-01-09T06:10:01;8.60;99.90
23452;DHT22;11898;51.130;6.780;2023-01-09T06:12:30;8.70;99.90
23452;DHT22;11898;51.130;6.780;2023-01-09T06:14:58;8.70;99.90
23452;DHT22;11898;51.130;6.780;2023-01-09T06:19:55;8.70;99.90
23452;DHT22;11898;51.130;6.780;2023-01-09T06:22:24;8.80;99.90
23452;DHT22;11898;51.130;6.780;2023-01-09T06:24:52;8.80;99.90
23452;DHT22;11898;51.130;6.780;2023-01-09T06:29:49;8.80;99.90
23452;DHT22;11898;51.130;6.780;2023-01-09T06:32:18;8.80;99.90
23452;DHT22;11898;51.130;6.780;2023-01-09T06:34:46;8.80;99.90
23452;DHT22;11898;51.130;6.780;2023-01-09T06:37:15;8.80;99.90
23452;DHT22;11898;51.130;6.780;2023-01-09T06:39:43;8.80;99.90
23452;DHT22;11898;51.130;6.780;2023-01-09T06:42:12;8.80;99.90
23452;DHT22;11898;51.130;6.780;2023-01-09T06:44:40;8.70;99.90
23452;DHT22;11898;51.130;6.780;2023-01-09T06:47:09;8.80;99.90
23452;DHT22;11898;51.130;6.780;2023-01-09T06:49:37;8.80;99.90
23452;DHT22;11898;51.130;6.780;2023-01-09T06:52:06;8.80;99.90
23452;DHT22;11898;51.130;6.780;2023-01-09T06:54:35;8.80;99.90
23452;DHT22;11898;51.130;6.780;2023-01-09T06:57:03;8.90;99.90
23452;DHT22;11898;51.130;6.780;2023-01-09T06:59:32;8.80;99.90
23452;DHT22;11898;51.130;6.780;2023-01-09T07:02:00;8.80;99.90
23452;DHT22;11898;51.130;6.780;2023-01-09T07:04:29;8.70;99.90
23452;DHT22;11898;51.130;6.780;2023-01-09T07:06:58;8.80;99.90
23452;DHT22;11898;51.130;6.780;2023-01-09T07:09:26;8.80;99.90
23452;DHT22;11898;51.130;6.780;2023-01-09T07:11:55;8.80;99.90
23452;DHT22;11898;51.130;6.780;2023-01-09T07:14:23;8.80;99.90
23452;DHT22;11898;51.130;6.780;2023-01-09T07:16:52;8.90;99.90
23452;DHT22;11898;51.130;6.780;2023-01-09T07:19:20;8.90;99.90
23452;DHT22;11898;51.130;6.780;2023-01-09T07:21:49;8.80;99.90
23452;DHT22;11898;51.130;6.780;2023-01-09T07:24:17;8.90;99.90
23452;DHT22;11898;51.130;6.780;2023-01-09T07:26:46;8.90;99.90
23452;DHT22;11898;51.130;6.780;2023-01-09T07:29:15;8.90;99.90
23452;DHT22;11898;51.130;6.780;2023-01-09T07:31:43;8.90;99.90
23452;DHT22;11898;51.130;6.780;2023-01-09T07:34:12;8.90;99.90
23452;DHT22;11898;51.130;6.780;2023-01-09T07:36:40;8.90;99.90
23452;DHT22;11898;51.130;6.780;2023-01-09T07:39:11;8.90;99.90
23452;DHT22;11898;51.130;6.780;2023-01-09T07:41:40;9.00;99.90
23452;DHT22;11898;51.130;6.780;2023-01-09T07:44:08;9.00;99.90
23452;DHT22;11898;51.130;6.780;2023-01-09T07:46:37;9.00;99.90
23452;DHT22;11898;51.130;6.780;2023-01-09T07:49:06;9.00;99.90
23452;DHT22;11898;51.130;6.780;2023-01-09T07:51:35;8.90;99.90
23452;DHT22;11898;51.130;6.780;2023-01-09T07:54:05;9.00;99.90
23452;DHT22;11898;51.130;6.780;2023-01-09T07:56:34;9.00;99.90
23452;DHT22;11898;51.130;6.780;2023-01-09T07:59:03;9.10;99.90
23452;DHT22;11898;51.130;6.780;2023-01-09T08:01:31;9.10;99.90
23452;DHT22;11898;51.130;6.780;2023-01-09T08:04:00;9.10;99.90
23452;DHT22;11898;51.130;6.780;2023-01-09T08:06:29;9.10;99.90
23452;DHT22;11898;51.130;6.780;2023-01-09T08:08:58;9.10;99.90
23452;DHT22;11898;51.130;6.780;2023-01-09T09:47:31;9.20;99.90
23452;DHT22;11898;51.130;6.780;2023-01-09T17:43:41;10.00;99.90
23452;DHT22;11898;51.130;6.780;2023-01-09T17:46:15;9.00;99.90
23452;DHT22;11898;51.130;6.780;2023-01-09T17:48:45;8.90;99.90
23452;DHT22;11898;51.130;6.780;2023-01-09T17:51:14;8.80;99.90
23452;DHT22;11898;51.130;6.780;2023-01-09T17:53:42;8.80;99.90
23452;DHT22;11898;51.130;6.780;2023-01-09T17:56:17;9.30;99.90
23452;DHT22;11898;51.130;6.780;2023-01-09T17:58:46;9.00;99.90
23452;DHT22;11898;51.130;6.780;2023-01-09T18:01:16;8.90;99.90
23452;DHT22;11898;51.130;6.780;2023-01-09T18:03:46;8.90;99.90
23452;DHT22;11898;51.130;6.780;2023-01-09T18:06:18;8.90;99.90
23452;DHT22;11898;51.130;6.780;2023-01-09T18:08:47;8.80;99.90
23452;DHT22;11898;51.130;6.780;2023-01-09T18:11:18;8.80;99.90
23452;DHT22;11898;51.130;6.780;2023-01-09T18:13:48;8.70;99.90
23452;DHT22;11898;51.130;6.780;2023-01-09T18:16:20;8.60;99.90
23452;DHT22;11898;51.130;6.780;2023-01-09T18:18:51;8.50;99.90
23452;DHT22;11898;51.130;6.780;2023-01-09T18:21:22;8.50;99.90
23452;DHT22;11898;51.130;6.780;2023-01-09T18:23:51;8.50;99.90
23452;DHT22;11898;51.130;6.780;2023-01-09T18:26:20;8.50;99.90
23452;DHT22;11898;51.130;6.780;2023-01-09T18:28:51;8.40;99.90
23452;DHT22;11898;51.130;6.780;2023-01-09T18:31:20;8.40;99.90
23452;DHT22;11898;51.130;6.780;2023-01-09T18:33:52;8.40;99.90
23452;DHT22;11898;51.130;6.780;2023-01-09T18:36:24;8.30;99.90
23452;DHT22;11898;51.130;6.780;2023-01-09T18:39:01;8.30;99.90
23452;DHT22;11898;51.130;6.780;2023-01-09T18:41:31;8.30;99.90
23452;DHT22;11898;51.130;6.780;2023-01-09T18:44:00;8.20;99.90
23452;DHT22;11898;51.130;6.780;2023-01-09T18:46:29;8.30;99.90
23452;DHT22;11898;51.130;6.780;2023-01-09T18:49:00;8.30;99.90
23452;DHT22;11898;51.130;6.780;2023-01-09T18:51:31;8.30;99.90
23452;DHT22;11898;51.130;6.780;2023-01-09T18:54:00;8.50;99.90
23452;DHT22;11898;51.130;6.780;2023-01-09T18:56:29;8.50;99.90
23452;DHT22;11898;51.130;6.780;2023-01-09T18:58:58;8.60;99.90
23452;DHT22;11898;51.130;6.780;2023-01-09T19:01:28;8.60;99.90
23452;DHT22;11898;51.130;6.780;2023-01-09T19:03:58;8.60;99.90
23452;DHT22;11898;51.130;6.780;2023-01-09T19:06:28;8.70;99.90
23452;DHT22;11898;51.130;6.780;2023-01-09T19:08:58;8.80;99.90
23452;DHT22;11898;51.130;6.780;2023-01-09T19:11:26;8.70;99.90
23452;DHT22;11898;51.130;6.780;2023-01-09T19:13:55;8.70;99.90
23452;DHT22;11898;51.130;6.780;2023-01-09T19:16:24;8.80;99.90
23452;DHT22;11898;51.130;6.780;2023-01-09T19:18:53;8.80;99.90
23452;DHT22;11898;51.130;6.780;2023-01-09T19:21:22;8.80;99.90
23452;DHT22;11898;51.130;6.780;2023-01-09T19:23:53;8.90;99.90
23452;DHT22;11898;51.130;6.780;2023-01-09T19:26:24;8.90;99.90
23452;DHT22;11898;51.130;6.780;2023-01-09T19:28:53;9.00;99.90
23452;DHT22;11898;51.130;6.780;2023-01-09T19:31:25;9.00;99.90
23452;DHT22;11898;51.130;6.780;2023-01-09T19:33:56;9.10;99.90
23452;DHT22;11898;51.130;6.780;2023-01-09T19:36:25;9.20;99.90
23452;DHT22;11898;51.130;6.780;2023-01-09T19:38:56;9.20;99.90
23452;DHT22;11898;51.130;6.780;2023-01-09T19:41:25;9.20;99.90
23452;DHT22;11898;51.130;6.780;2023-01-09T19:43:54;9.20;99.90
23452;DHT22;11898;51.130;6.780;2023-01-09T19:46:23;8.80;99.90
23452;DHT22;11898;51.130;6.780;2023-01-09T19:48:53;9.20;99.90
23452;DHT22;11898;51.130;6.780;2023-01-09T19:51:24;8.80;99.90
23452;DHT22;11898;51.130;6.780;2023-01-09T19:53:54;8.20;99.90
23452;DHT22;11898;51.130;6.780;2023-01-09T19:56:27;8.90;99.90
23452;DHT22;11898;51.130;6.780;2023-01-09T19:59:01;8.70;99.90
23452;DHT22;11898;51.130;6.780;2023-01-09T20:01:37;8.60;99.90
23452;DHT22;11898;51.130;6.780;2023-01-09T20:04:10;8.60;99.90
23452;DHT22;11898;51.130;6.780;2023-01-09T20:06:44;8.50;99.90
23452;DHT22;11898;51.130;6.780;2023-01-09T20:09:16;8.60;99.90
23452;DHT22;11898;51.130;6.780;2023-01-09T20:11:45;8.70;99.90
23452;DHT22;11898;51.130;6.780;2023-01-09T20:14:15;8.80;99.90
23452;DHT22;11898;51.130;6.780;2023-01-09T20:16:45;8.70;99.90
23452;DHT22;11898;51.130;6.780;2023-01-09T20:19:18;8.70;99.90
23452;DHT22;11898;51.130;6.780;2023-01-09T20:21:47;8.60;99.90
23452;DHT22;11898;51.130;6.780;2023-01-09T20:24:15;8.70;99.90
23452;DHT22;11898;51.130;6.780;2023-01-09T20:26:44;8.70;99.90
23452;DHT22;11898;51.130;6.780;2023-01-09T20:29:13;8.60;99.90
23452;DHT22;11898;51.130;6.780;2023-01-09T20:31:42;8.40;99.90
23452;DHT22;11898;51.130;6.780;2023-01-09T20:34:12;8.60;99.90
23452;DHT22;11898;51.130;6.780;2023-01-09T20:36:41;8.70;99.90
23452;DHT22;11898;51.130;6.780;2023-01-09T20:39:11;8.70;99.90
23452;DHT22;11898;51.130;6.780;2023-01-09T20:41:40;8.80;99.90
23452;DHT22;11898;51.130;6.780;2023-01-09T20:44:12;8.80;99.90
23452;DHT22;11898;51.130;6.780;2023-01-09T20:46:43;8.80;99.90
23452;DHT22;11898;51.130;6.780;2023-01-09T20:49:15;8.70;99.90
23452;DHT22;11898;51.130;6.780;2023-01-09T20:51:48;8.70;99.90
23452;DHT22;11898;51.130;6.780;2023-01-09T20:54:18;8.60;99.90
23452;DHT22;11898;51.130;6.780;2023-01-09T20:56:50;8.60;99.90
23452;DHT22;11898;51.130;6.780;2023-01-09T20:59:20;8.50;99.90
23452;DHT22;11898;51.130;6.780;2023-01-09T21:01:49;8.40;99.90
23452;DHT22;11898;51.130;6.780;2023-01-09T21:04:18;8.30;99.90
23452;DHT22;11898;51.130;6.780;2023-01-09T21:06:46;8.50;99.90
23452;DHT22;11898;51.130;6.780;2023-01-09T21:09:17;8.50;99.90
23452;DHT22;11898;51.130;6.780;2023-01-09T21:11:46;8.50;99.90
23452;DHT22;11898;51.130;6.780;2023-01-09T21:14:15;8.50;99.90
23452;DHT22;11898;51.130;6.780;2023-01-09T21:16:43;8.40;99.90
23452;DHT22;11898;51.130;6.780;2023-01-09T21:19:14;8.40;99.90
23452;DHT22;11898;51.130;6.780;2023-01-09T21:21:43;8.50;99.90
23452;DHT22;11898;51.130;6.780;2023-01-09T21:24:11;8.40;99.90
23452;DHT22;11898;51.130;6.780;2023-01-09T21:26:40;8.60;99.90
23452;DHT22;11898;51.130;6.780;2023-01-09T21:29:10;8.50;99.90
23452;DHT22;11898;51.130;6.780;2023-01-09T21:31:39;8.40;99.90
23452;DHT22;11898;51.130;6.780;2023-01-09T21:34:10;8.40;99.90
23452;DHT22;11898;51.130;6.780;2023-01-09T21:36:40;8.40;99.90
23452;DHT22;11898;51.130;6.780;2023-01-09T21:39:11;8.40;99.90
23452;DHT22;11898;51.130;6.780;2023-01-09T21:41:39;8.40;99.90
23452;DHT22;11898;51.130;6.780;2023-01-09T21:44:26;8.40;99.90
23452;DHT22;11898;51.130;6.780;2023-01-09T21:47:13;8.20;99.90
23452;DHT22;11898;51.130;6.780;2023-01-09T21:49:43;8.10;99.90
23452;DHT22;11898;51.130;6.780;2023-01-09T21:52:13;8.20;99.90
23452;DHT22;11898;51.130;6.780;2023-01-09T21:54:41;8.30;99.90
23452;DHT22;11898;51.130;6.780;2023-01-09T21:57:10;8.30;99.90
23452;DHT22;11898;51.130;6.780;2023-01-09T21:59:39;8.50;99.90
23452;DHT22;11898;51.130;6.780;2023-01-09T22:02:12;8.10;99.90
23452;DHT22;11898;51.130;6.780;2023-01-09T22:04:42;8.50;99.90
23452;DHT22;11898;51.130;6.780;2023-01-09T22:07:12;8.40;99.90
23452;DHT22;11898;51.130;6.780;2023-01-09T22:09:41;8.50;99.90
23452;DHT22;11898;51.130;6.780;2023-01-09T22:12:11;8.60;99.90
23452;DHT22;11898;51.130;6.780;2023-01-09T22:14:40;8.30;99.90
23452;DHT22;11898;51.130;6.780;2023-01-09T22:17:09;8.30;99.90
23452;DHT22;11898;51.130;6.780;2023-01-09T22:19:37;8.20;99.90
23452;DHT22;11898;51.130;6.780;2023-01-09T22:22:06;8.20;99.90
23452;DHT22;11898;51.130;6.780;2023-01-09T22:24:35;8.60;99.90
23452;DHT22;11898;51.130;6.780;2023-01-09T22:27:03;8.20;99.90
23452;DHT22;11898;51.130;6.780;2023-01-09T22:29:33;8.40;99.90
23452;DHT22;11898;51.130;6.780;2023-01-09T22:32:02;8.20;99.90
23452;DHT22;11898;51.130;6.780;2023-01-09T22:34:31;8.30;99.90
23452;DHT22;11898;51.130;6.780;2023-01-09T22:36:59;8.40;99.90
23452;DHT22;11898;51.130;6.780;2023-01-09T22:39:28;8.30;99.90
23452;DHT22;11898;51.130;6.780;2023-01-09T22:41:58;8.30;99.90
23452;DHT22;11898;51.130;6.780;2023-01-09T22:44:26;8.10;99.90
23452;DHT22;11898;51.130;6.780;2023-01-09T22:46:55;8.00;99.90
23452;DHT22;11898;51.130;6.780;2023-01-09T22:49:24;7.80;99.90
23452;DHT22;11898;51.130;6.780;2023-01-09T22:51:54;7.80;99.90
23452;DHT22;11898;51.130;6.780;2023-01-09T22:54:23;7.70;99.90
23452;DHT22;11898;51.130;6.780;2023-01-09T22:56:52;7.60;99.90
23452;DHT22;11898;51.130;6.780;2023-01-09T22:59:20;7.60;99.90
23452;DHT22;11898;51.130;6.780;2023-01-09T23:01:50;7.60;99.90
23452;DHT22;11898;51.130;6.780;2023-01-09T23:04:20;7.30;99.90
23452;DHT22;11898;51.130;6.780;2023-01-09T23:06:49;7.50;99.90
23452;DHT22;11898;51.130;6.780;2023-01-09T23:09:18;7.50;99.90
23452;DHT22;11898;51.130;6.780;2023-01-09T23:11:47;7.50;99.90
23452;DHT22;11898;51.130;6.780;2023-01-09T23:14:36;7.20;99.90
23452;DHT22;11898;51.130;6.780;2023-01-09T23:17:06;7.40;99.90
23452;DHT22;11898;51.130;6.780;2023-01-09T23:19:36;7.30;99.90
23452;DHT22;11898;51.130;6.780;2023-01-09T23:22:07;7.50;99.90
23452;DHT22;11898;51.130;6.780;2023-01-09T23:24:35;7.30;99.90
23452;DHT22;11898;51.130;6.780;2023-01-09T23:27:04;7.30;99.90
23452;DHT22;11898;51.130;6.780;2023-01-09T23:29:33;7.30;99.90
23452;DHT22;11898;51.130;6.780;2023-01-09T23:32:04;7.20;99.90
23452;DHT22;11898;51.130;6.780;2023-01-09T23:34:33;7.30;99.90
23452;DHT22;11898;51.130;6.780;2023-01-09T23:37:01;7.00;99.90
23452;DHT22;11898;51.130;6.780;2023-01-09T23:39:31;7.30;99.90
23452;DHT22;11898;51.130;6.780;2023-01-09T23:42:00;7.30;99.90
23452;DHT22;11898;51.130;6.780;2023-01-09T23:44:46;7.40;99.90
23452;DHT22;11898;51.130;6.780;2023-01-09T23:47:14;7.50;99.90
23452;DHT22;11898;51.130;6.780;2023-01-09T23:49:43;7.60;99.90
23452;DHT22;11898;51.130;6.780;2023-01-09T23:52:12;7.70;99.90
23452;DHT22;11898;51.130;6.780;2023-01-09T23:54:40;7.80;99.90
23452;DHT22;11898;51.130;6.780;2023-01-09T23:57:09;7.90;99.90
23452;DHT22;11898;51.130;6.780;2023-01-09T23:59:38;8.00;99.90
